sensor_id;sensor_type;location;lat;lon;timestamp;pressure;altitude;pressure_sealevel;temperature;humidity
17821;BME280;9035;42.554;23.188;2022-09-27T00:01:11;89240.56;;;16.42;90.84
17821;BME280;9035;42.554;23.188;2022-09-27T00:03:39;89233.44;;;16.46;90.53
17821;BME280;9035;42.554;23.188;2022-09-27T00:06:07;89241.31;;;16.50;89.89
17821;BME280;9035;42.554;23.188;2022-09-27T00:08:36;89233.44;;;16.39;90.47
17821;BME280;9035;42.554;23.188;2022-09-27T00:11:05;89234.56;;;16.42;90.78
17821;BME280;9035;42.554;23.188;2022-09-27T00:13:32;89235.34;;;16.39;90.23
17821;BME280;9035;42.554;23.188;2022-09-27T00:16:02;89235.31;;;16.53;89.97
17821;BME280;9035;42.554;23.188;2022-09-27T00:18:31;89242.06;;;16.61;89.18
17821;BME280;9035;42.554;23.188;2022-09-27T00:21:04;89237.22;;;16.52;89.09
17821;BME280;9035;42.554;23.188;2022-09-27T00:23:31;89237.59;;;16.58;88.58
17821;BME280;9035;42.554;23.188;2022-09-27T00:25:58;89242.44;;;16.45;90.13
17821;BME280;9035;42.554;23.188;2022-09-27T00:28:25;89240.56;;;16.49;90.18
17821;BME280;9035;42.554;23.188;2022-09-27T00:30:52;89241.31;;;16.43;89.42
17821;BME280;9035;42.554;23.188;2022-09-27T00:33:21;89244.69;;;16.54;88.93
17821;BME280;9035;42.554;23.188;2022-09-27T00:35:48;89245.78;;;16.63;88.72
17821;BME280;9035;42.554;23.188;2022-09-27T00:38:15;89245.41;;;16.75;88.89
17821;BME280;9035;42.554;23.188;2022-09-27T00:40:42;89251.38;;;16.76;88.49
17821;BME280;9035;42.554;23.188;2022-09-27T00:43:17;89236.06;;;16.81;88.26
17821;BME280;9035;42.554;23.188;2022-09-27T00:45:47;89235.69;;;16.65;88.87
17821;BME280;9035;42.554;23.188;2022-09-27T00:48:17;89229.34;;;16.70;88.60
17821;BME280;9035;42.554;23.188;2022-09-27T00:50:51;89223.72;;;16.68;87.25
17821;BME280;9035;42.554;23.188;2022-09-27T00:53:23;89216.66;;;16.58;88.40
17821;BME280;9035;42.554;23.188;2022-09-27T00:55:54;89221.88;;;16.68;88.25
17821;BME280;9035;42.554;23.188;2022-09-27T00:58:26;89206.16;;;16.72;86.72
17821;BME280;9035;42.554;23.188;2022-09-27T01:00:57;89216.66;;;16.61;87.21
17821;BME280;9035;42.554;23.188;2022-09-27T01:03:30;89221.50;;;16.66;86.61
17821;BME280;9035;42.554;23.188;2022-09-27T01:06:03;89211.41;;;16.61;88.17
17821;BME280;9035;42.554;23.188;2022-09-27T01:08:32;89212.88;;;16.59;87.54
17821;BME280;9035;42.554;23.188;2022-09-27T01:11:12;89206.16;;;16.54;87.40
17821;BME280;9035;42.554;23.188;2022-09-27T01:13:43;89217.00;;;16.49;87.78
17821;BME280;9035;42.554;23.188;2022-09-27T01:16:19;89205.41;;;16.64;86.75
17821;BME280;9035;42.554;23.188;2022-09-27T01:19:00;89207.28;;;16.64;86.56
17821;BME280;9035;42.554;23.188;2022-09-27T01:21:56;89209.53;;;16.62;86.24
17821;BME280;9035;42.554;23.188;2022-09-27T01:24:55;89205.41;;;16.68;86.65
17821;BME280;9035;42.554;23.188;2022-09-27T01:28:04;89199.03;;;16.72;85.97
17821;BME280;9035;42.554;23.188;2022-09-27T01:30:40;89193.84;;;16.55;85.39
17821;BME280;9035;42.554;23.188;2022-09-27T01:33:17;89198.69;;;16.53;86.78
17821;BME280;9035;42.554;23.188;2022-09-27T01:36:03;89200.94;;;16.51;88.93
17821;BME280;9035;42.554;23.188;2022-09-27T01:38:37;89202.81;;;16.36;89.52
17821;BME280;9035;42.554;23.188;2022-09-27T01:41:14;89199.81;;;16.45;88.37
17821;BME280;9035;42.554;23.188;2022-09-27T01:43:47;89206.53;;;16.25;90.06
17821;BME280;9035;42.554;23.188;2022-09-27T01:46:20;89209.56;;;16.41;88.98
17821;BME280;9035;42.554;23.188;2022-09-27T01:48:49;89209.53;;;16.48;86.52
17821;BME280;9035;42.554;23.188;2022-09-27T01:51:19;89208.06;;;16.33;88.58
17821;BME280;9035;42.554;23.188;2022-09-27T01:53:51;89205.03;;;16.48;87.98
17821;BME280;9035;42.554;23.188;2022-09-27T01:56:22;89199.44;;;16.60;87.43
17821;BME280;9035;42.554;23.188;2022-09-27T01:58:53;89183.34;;;16.58;86.61
17821;BME280;9035;42.554;23.188;2022-09-27T02:01:24;89181.47;;;16.76;86.10
17821;BME280;9035;42.554;23.188;2022-09-27T02:03:54;89181.44;;;16.83;85.32
17821;BME280;9035;42.554;23.188;2022-09-27T02:06:27;89187.03;;;16.92;85.32
17821;BME280;9035;42.554;23.188;2022-09-27T02:08:59;89186.69;;;16.80;85.23
17821;BME280;9035;42.554;23.188;2022-09-27T02:11:28;89188.91;;;16.85;85.41
17821;BME280;9035;42.554;23.188;2022-09-27T02:13:57;89188.56;;;16.89;84.98
17821;BME280;9035;42.554;23.188;2022-09-27T02:16:36;89173.19;;;17.02;83.81
17821;BME280;9035;42.554;23.188;2022-09-27T02:19:09;89156.69;;;17.01;83.63
17821;BME280;9035;42.554;23.188;2022-09-27T02:21:42;89153.72;;;17.03;83.40
17821;BME280;9035;42.554;23.188;2022-09-27T02:24:13;89133.91;;;16.98;83.03
17821;BME280;9035;42.554;23.188;2022-09-27T02:26:47;89133.88;;;17.02;82.88
17821;BME280;9035;42.554;23.188;2022-09-27T02:29:22;89134.69;;;16.85;85.33
17821;BME280;9035;42.554;23.188;2022-09-27T02:31:53;89128.75;;;16.64;85.58
17821;BME280;9035;42.554;23.188;2022-09-27T02:34:22;89121.25;;;16.73;86.04
17821;BME280;9035;42.554;23.188;2022-09-27T02:36:50;89124.22;;;16.82;85.17
17821;BME280;9035;42.554;23.188;2022-09-27T02:39:18;89129.09;;;16.76;84.19
17821;BME280;9035;42.554;23.188;2022-09-27T02:41:45;89122.78;;;16.53;85.73
17821;BME280;9035;42.554;23.188;2022-09-27T02:44:13;89140.72;;;16.68;84.72
17821;BME280;9035;42.554;23.188;2022-09-27T02:47:06;89136.22;;;16.65;85.39
17821;BME280;9035;42.554;23.188;2022-09-27T02:49:46;89138.16;;;16.33;88.17
17821;BME280;9035;42.554;23.188;2022-09-27T02:52:22;89122.06;;;16.21;89.18
17821;BME280;9035;42.554;23.188;2022-09-27T02:55:03;89129.53;;;16.29;86.55
17821;BME280;9035;42.554;23.188;2022-09-27T02:57:40;89138.91;;;16.44;86.77
17821;BME280;9035;42.554;23.188;2022-09-27T03:00:15;89121.31;;;16.52;85.83
17821;BME280;9035;42.554;23.188;2022-09-27T03:02:51;89123.53;;;16.50;85.87
17821;BME280;9035;42.554;23.188;2022-09-27T03:05:20;89112.72;;;16.48;86.27
17821;BME280;9035;42.554;23.188;2022-09-27T03:07:49;89108.97;;;16.49;86.30
17821;BME280;9035;42.554;23.188;2022-09-27T03:10:17;89094.03;;;16.49;87.97
17821;BME280;9035;42.554;23.188;2022-09-27T03:12:45;89096.66;;;16.42;87.68
17821;BME280;9035;42.554;23.188;2022-09-27T03:15:12;89089.94;;;16.41;86.87
17821;BME280;9035;42.554;23.188;2022-09-27T03:17:39;89096.25;;;16.51;86.72
17821;BME280;9035;42.554;23.188;2022-09-27T03:20:07;89080.97;;;16.35;87.99
17821;BME280;9035;42.554;23.188;2022-09-27T03:22:35;89063.75;;;16.45;86.25
17821;BME280;9035;42.554;23.188;2022-09-27T03:25:03;89065.66;;;16.41;86.27
17821;BME280;9035;42.554;23.188;2022-09-27T03:27:30;89073.81;;;16.50;86.42
17821;BME280;9035;42.554;23.188;2022-09-27T03:29:57;89080.22;;;16.24;88.20
17821;BME280;9035;42.554;23.188;2022-09-27T03:32:24;89083.22;;;16.30;88.15
17821;BME280;9035;42.554;23.188;2022-09-27T03:34:51;89080.59;;;16.40;86.67
17821;BME280;9035;42.554;23.188;2022-09-27T03:37:21;89063.78;;;16.31;86.69
17821;BME280;9035;42.554;23.188;2022-09-27T03:39:48;89048.09;;;16.20;87.03
17821;BME280;9035;42.554;23.188;2022-09-27T03:42:14;89059.28;;;16.35;86.79
17821;BME280;9035;42.554;23.188;2022-09-27T03:44:41;89045.09;;;16.29;88.50
17821;BME280;9035;42.554;23.188;2022-09-27T03:47:08;89057.06;;;16.30;87.49
17821;BME280;9035;42.554;23.188;2022-09-27T03:49:35;89053.28;;;16.41;86.80
17821;BME280;9035;42.554;23.188;2022-09-27T03:52:02;89046.97;;;16.35;86.87
17821;BME280;9035;42.554;23.188;2022-09-27T03:54:30;89043.59;;;16.45;86.53
17821;BME280;9035;42.554;23.188;2022-09-27T03:56:57;89048.47;;;16.36;87.40
17821;BME280;9035;42.554;23.188;2022-09-27T03:59:24;89054.06;;;16.31;87.97
17821;BME280;9035;42.554;23.188;2022-09-27T04:01:51;89058.19;;;16.22;88.12
17821;BME280;9035;42.554;23.188;2022-09-27T04:04:17;89051.50;;;16.00;90.65
17821;BME280;9035;42.554;23.188;2022-09-27T04:06:44;89046.97;;;16.18;89.54
17821;BME280;9035;42.554;23.188;2022-09-27T04:09:11;89049.59;;;16.07;89.85
17821;BME280;9035;42.554;23.188;2022-09-27T04:11:39;89054.81;;;16.07;90.94
17821;BME280;9035;42.554;23.188;2022-09-27T04:14:06;89044.72;;;16.23;89.92
17821;BME280;9035;42.554;23.188;2022-09-27T04:16:33;89053.34;;;15.93;91.05
17821;BME280;9035;42.554;23.188;2022-09-27T04:19:00;89051.47;;;15.93;93.24
17821;BME280;9035;42.554;23.188;2022-09-27T04:21:27;89052.19;;;16.21;90.39
17821;BME280;9035;42.554;23.188;2022-09-27T04:23:54;89053.31;;;16.34;87.96
17821;BME280;9035;42.554;23.188;2022-09-27T04:26:21;89058.91;;;16.29;88.97
17821;BME280;9035;42.554;23.188;2022-09-27T04:28:49;89065.25;;;16.21;88.47
17821;BME280;9035;42.554;23.188;2022-09-27T04:31:17;89065.66;;;16.20;87.59
17821;BME280;9035;42.554;23.188;2022-09-27T04:33:44;89068.28;;;16.16;88.62
17821;BME280;9035;42.554;23.188;2022-09-27T04:36:15;89064.53;;;16.17;88.50
17821;BME280;9035;42.554;23.188;2022-09-27T04:38:54;89061.13;;;16.48;85.79
17821;BME280;9035;42.554;23.188;2022-09-27T04:41:22;89063.38;;;16.43;85.94
17821;BME280;9035;42.554;23.188;2022-09-27T04:43:51;89075.31;;;16.54;85.61
17821;BME280;9035;42.554;23.188;2022-09-27T04:46:19;89086.13;;;16.60;84.96
17821;BME280;9035;42.554;23.188;2022-09-27T04:48:45;89087.25;;;16.55;84.45
17821;BME280;9035;42.554;23.188;2022-09-27T04:51:13;89080.19;;;16.56;85.11
17821;BME280;9035;42.554;23.188;2022-09-27T04:53:41;89079.44;;;16.48;86.01
17821;BME280;9035;42.554;23.188;2022-09-27T04:56:08;89080.16;;;16.63;83.96
17821;BME280;9035;42.554;23.188;2022-09-27T04:58:35;89083.53;;;16.53;85.28
17821;BME280;9035;42.554;23.188;2022-09-27T05:01:04;89084.63;;;16.62;85.23
17821;BME280;9035;42.554;23.188;2022-09-27T05:03:31;89084.22;;;16.78;83.50
17821;BME280;9035;42.554;23.188;2022-09-27T05:05:58;89080.16;;;16.59;83.86
17821;BME280;9035;42.554;23.188;2022-09-27T05:08:25;89077.50;;;16.70;83.46
17821;BME280;9035;42.554;23.188;2022-09-27T05:10:53;89083.50;;;16.63;84.93
17821;BME280;9035;42.554;23.188;2022-09-27T05:13:20;89080.50;;;16.72;84.73
17821;BME280;9035;42.554;23.188;2022-09-27T05:15:47;89090.94;;;16.82;83.97
17821;BME280;9035;42.554;23.188;2022-09-27T05:18:15;89071.56;;;16.66;84.45
17821;BME280;9035;42.554;23.188;2022-09-27T05:20:43;89081.56;;;16.85;83.40
17821;BME280;9035;42.554;23.188;2022-09-27T05:23:10;89063.63;;;16.83;83.21
17821;BME280;9035;42.554;23.188;2022-09-27T05:25:37;89060.28;;;16.72;83.88
17821;BME280;9035;42.554;23.188;2022-09-27T05:28:04;89027.41;;;16.68;82.20
17821;BME280;9035;42.554;23.188;2022-09-27T05:30:31;89043.47;;;16.70;83.97
17821;BME280;9035;42.554;23.188;2022-09-27T05:32:58;89051.66;;;16.82;82.64
17821;BME280;9035;42.554;23.188;2022-09-27T05:35:26;89062.16;;;16.79;83.10
17821;BME280;9035;42.554;23.188;2022-09-27T05:37:54;89072.28;;;16.66;84.55
17821;BME280;9035;42.554;23.188;2022-09-27T05:40:21;89067.81;;;16.63;84.87
17821;BME280;9035;42.554;23.188;2022-09-27T05:42:50;89073.44;;;16.58;84.51
17821;BME280;9035;42.554;23.188;2022-09-27T05:45:19;89080.88;;;16.67;83.84
17821;BME280;9035;42.554;23.188;2022-09-27T05:47:53;89065.94;;;16.67;83.03
17821;BME280;9035;42.554;23.188;2022-09-27T05:50:21;89072.66;;;16.72;83.64
17821;BME280;9035;42.554;23.188;2022-09-27T05:52:49;89084.31;;;16.43;84.54
17821;BME280;9035;42.554;23.188;2022-09-27T05:55:16;89077.94;;;16.51;85.15
17821;BME280;9035;42.554;23.188;2022-09-27T05:57:53;89068.59;;;16.46;85.25
17821;BME280;9035;42.554;23.188;2022-09-27T06:00:20;89063.31;;;16.64;83.69
17821;BME280;9035;42.554;23.188;2022-09-27T06:02:52;89058.13;;;16.50;85.11
17821;BME280;9035;42.554;23.188;2022-09-27T06:05:19;89053.66;;;16.26;85.73
17821;BME280;9035;42.554;23.188;2022-09-27T06:07:46;89048.44;;;16.40;86.08
17821;BME280;9035;42.554;23.188;2022-09-27T06:10:15;89049.53;;;16.46;86.09
17821;BME280;9035;42.554;23.188;2022-09-27T06:12:42;89055.09;;;16.62;85.20
17821;BME280;9035;42.554;23.188;2022-09-27T06:15:10;89047.66;;;16.50;86.24
17821;BME280;9035;42.554;23.188;2022-09-27T06:17:36;89041.69;;;16.49;87.12
17821;BME280;9035;42.554;23.188;2022-09-27T06:20:04;89040.91;;;16.59;86.32
17821;BME280;9035;42.554;23.188;2022-09-27T06:22:32;89049.91;;;16.51;86.56
17821;BME280;9035;42.554;23.188;2022-09-27T06:24:58;89044.59;;;16.72;86.32
17821;BME280;9035;42.554;23.188;2022-09-27T06:27:27;89049.78;;;16.79;85.74
17821;BME280;9035;42.554;23.188;2022-09-27T06:29:54;89055.44;;;16.71;86.65
17821;BME280;9035;42.554;23.188;2022-09-27T06:32:21;89061.41;;;16.75;87.16
17821;BME280;9035;42.554;23.188;2022-09-27T06:34:48;89060.66;;;16.74;87.81
17821;BME280;9035;42.554;23.188;2022-09-27T06:37:15;89065.84;;;16.85;86.83
17821;BME280;9035;42.554;23.188;2022-09-27T06:39:41;89059.50;;;16.86;87.30
17821;BME280;9035;42.554;23.188;2022-09-27T06:42:08;89065.81;;;16.98;85.58
17821;BME280;9035;42.554;23.188;2022-09-27T06:44:37;89084.16;;;16.98;84.88
17821;BME280;9035;42.554;23.188;2022-09-27T06:47:04;89075.53;;;16.98;83.73
17821;BME280;9035;42.554;23.188;2022-09-27T06:49:31;89080.38;;;17.03;83.13
17821;BME280;9035;42.554;23.188;2022-09-27T06:51:58;89089.75;;;16.93;82.70
17821;BME280;9035;42.554;23.188;2022-09-27T06:54:24;89089.38;;;16.91;83.98
17821;BME280;9035;42.554;23.188;2022-09-27T06:56:51;89087.25;;;16.69;85.69
17821;BME280;9035;42.554;23.188;2022-09-27T06:59:18;89086.78;;;16.88;84.82
17821;BME280;9035;42.554;23.188;2022-09-27T07:02:03;89089.38;;;17.02;83.78
17821;BME280;9035;42.554;23.188;2022-09-27T07:04:31;89090.97;;;16.75;85.40
17821;BME280;9035;42.554;23.188;2022-09-27T07:06:57;89085.66;;;16.92;84.72
17821;BME280;9035;42.554;23.188;2022-09-27T07:09:24;89083.78;;;16.93;84.69
17821;BME280;9035;42.554;23.188;2022-09-27T07:11:51;89071.53;;;16.73;85.00
17821;BME280;9035;42.554;23.188;2022-09-27T07:14:19;89068.19;;;16.65;85.21
17821;BME280;9035;42.554;23.188;2022-09-27T07:16:46;89064.03;;;16.78;84.69
17821;BME280;9035;42.554;23.188;2022-09-27T07:19:14;89061.75;;;16.80;84.85
17821;BME280;9035;42.554;23.188;2022-09-27T07:21:42;89075.19;;;16.89;84.97
17821;BME280;9035;42.554;23.188;2022-09-27T07:24:09;89064.00;;;16.75;84.94
17821;BME280;9035;42.554;23.188;2022-09-27T07:26:36;89075.56;;;16.88;84.03
17821;BME280;9035;42.554;23.188;2022-09-27T07:29:03;89071.50;;;16.80;86.49
17821;BME280;9035;42.554;23.188;2022-09-27T07:31:30;89071.13;;;16.78;86.91
17821;BME280;9035;42.554;23.188;2022-09-27T07:33:56;89081.22;;;16.72;86.88
17821;BME280;9035;42.554;23.188;2022-09-27T07:36:25;89081.53;;;16.88;85.52
17821;BME280;9035;42.554;23.188;2022-09-27T07:38:51;89069.59;;;16.84;85.59
17821;BME280;9035;42.554;23.188;2022-09-27T07:41:18;89078.94;;;16.85;85.06
17821;BME280;9035;42.554;23.188;2022-09-27T07:43:45;89085.66;;;16.89;85.02
17821;BME280;9035;42.554;23.188;2022-09-27T07:46:12;89086.03;;;16.91;83.97
17821;BME280;9035;42.554;23.188;2022-09-27T07:48:39;89073.72;;;16.81;85.59
17821;BME280;9035;42.554;23.188;2022-09-27T07:51:06;89066.97;;;16.90;84.97
17821;BME280;9035;42.554;23.188;2022-09-27T07:53:36;89072.19;;;16.87;86.54
17821;BME280;9035;42.554;23.188;2022-09-27T07:56:05;89067.66;;;16.98;86.70
17821;BME280;9035;42.554;23.188;2022-09-27T07:58:32;89056.44;;;17.01;85.63
17821;BME280;9035;42.554;23.188;2022-09-27T08:00:59;89057.53;;;17.03;86.03
17821;BME280;9035;42.554;23.188;2022-09-27T08:03:27;89047.47;;;17.02;87.00
17821;BME280;9035;42.554;23.188;2022-09-27T08:05:53;89057.97;;;16.98;87.52
17821;BME280;9035;42.554;23.188;2022-09-27T08:08:20;89065.41;;;17.03;86.48
17821;BME280;9035;42.554;23.188;2022-09-27T08:10:50;89064.59;;;17.17;85.82
17821;BME280;9035;42.554;23.188;2022-09-27T08:13:17;89060.84;;;17.18;85.44
17821;BME280;9035;42.554;23.188;2022-09-27T08:15:44;89057.44;;;17.21;86.21
17821;BME280;9035;42.554;23.188;2022-09-27T08:18:13;89057.81;;;17.30;85.57
17821;BME280;9035;42.554;23.188;2022-09-27T08:20:39;89055.94;;;17.27;85.84
17821;BME280;9035;42.554;23.188;2022-09-27T08:23:06;89054.03;;;17.34;84.95
17821;BME280;9035;42.554;23.188;2022-09-27T08:25:34;89046.56;;;17.33;84.74
17821;BME280;9035;42.554;23.188;2022-09-27T08:28:03;89045.03;;;17.39;85.03
17821;BME280;9035;42.554;23.188;2022-09-27T08:30:30;89056.59;;;17.41;85.13
17821;BME280;9035;42.554;23.188;2022-09-27T08:32:59;89047.63;;;17.39;84.92
17821;BME280;9035;42.554;23.188;2022-09-27T08:35:27;89042.81;;;17.34;85.77
17821;BME280;9035;42.554;23.188;2022-09-27T08:37:55;89035.72;;;17.24;86.13
17821;BME280;9035;42.554;23.188;2022-09-27T08:40:26;89036.44;;;17.35;86.38
17821;BME280;9035;42.554;23.188;2022-09-27T08:42:59;89035.34;;;17.22;87.98
17821;BME280;9035;42.554;23.188;2022-09-27T08:45:33;89043.50;;;17.41;86.21
17821;BME280;9035;42.554;23.188;2022-09-27T08:48:04;89057.75;;;17.37;86.51
17821;BME280;9035;42.554;23.188;2022-09-27T08:50:34;89056.25;;;17.39;86.17
17821;BME280;9035;42.554;23.188;2022-09-27T08:53:04;89058.06;;;17.46;85.80
17821;BME280;9035;42.554;23.188;2022-09-27T08:55:36;89050.91;;;17.53;85.55
17821;BME280;9035;42.554;23.188;2022-09-27T08:58:14;89065.66;;;17.26;86.08
17821;BME280;9035;42.554;23.188;2022-09-27T09:00:43;89068.59;;;17.42;86.87
17821;BME280;9035;42.554;23.188;2022-09-27T09:03:17;89054.25;;;17.57;84.84
17821;BME280;9035;42.554;23.188;2022-09-27T09:05:53;89052.34;;;17.65;85.12
17821;BME280;9035;42.554;23.188;2022-09-27T09:08:30;89043.16;;;17.86;83.85
17821;BME280;9035;42.554;23.188;2022-09-27T09:11:07;89028.19;;;17.87;84.26
17821;BME280;9035;42.554;23.188;2022-09-27T09:14:16;89042.31;;;18.00;83.83
17821;BME280;9035;42.554;23.188;2022-09-27T09:16:52;89048.63;;;18.06;82.31
17821;BME280;9035;42.554;23.188;2022-09-27T09:19:39;89060.19;;;17.68;83.28
17821;BME280;9035;42.554;23.188;2022-09-27T09:22:16;89061.28;;;17.70;86.09
17821;BME280;9035;42.554;23.188;2022-09-27T09:24:59;89037.53;;;17.91;86.12
17821;BME280;9035;42.554;23.188;2022-09-27T09:27:37;89058.69;;;18.14;84.39
17821;BME280;9035;42.554;23.188;2022-09-27T09:30:18;89043.63;;;18.18;83.94
17821;BME280;9035;42.554;23.188;2022-09-27T09:32:58;89051.59;;;18.52;80.68
17821;BME280;9035;42.554;23.188;2022-09-27T09:35:34;89056.41;;;18.56;81.47
17821;BME280;9035;42.554;23.188;2022-09-27T09:38:05;89048.63;;;18.50;80.52
17821;BME280;9035;42.554;23.188;2022-09-27T09:40:41;89048.38;;;18.37;80.01
17821;BME280;9035;42.554;23.188;2022-09-27T09:43:14;89068.66;;;18.33;81.10
17821;BME280;9035;42.554;23.188;2022-09-27T09:45:45;89059.66;;;18.31;80.46
17821;BME280;9035;42.554;23.188;2022-09-27T09:48:21;89055.84;;;18.42;80.75
17821;BME280;9035;42.554;23.188;2022-09-27T09:50:52;89048.38;;;18.37;81.20
17821;BME280;9035;42.554;23.188;2022-09-27T09:53:24;89039.31;;;18.42;81.77
17821;BME280;9035;42.554;23.188;2022-09-27T09:55:56;89046.03;;;18.46;80.51
17821;BME280;9035;42.554;23.188;2022-09-27T09:58:28;89053.25;;;18.35;80.84
17821;BME280;9035;42.554;23.188;2022-09-27T10:00:59;89025.91;;;18.33;80.88
17821;BME280;9035;42.554;23.188;2022-09-27T10:03:37;89034.56;;;18.33;82.45
17821;BME280;9035;42.554;23.188;2022-09-27T10:06:04;89039.00;;;18.36;82.66
17821;BME280;9035;42.554;23.188;2022-09-27T10:08:31;89044.41;;;18.55;81.54
17821;BME280;9035;42.554;23.188;2022-09-27T10:10:59;89029.50;;;18.49;82.21
17821;BME280;9035;42.554;23.188;2022-09-27T10:13:26;89030.72;;;18.74;81.82
17821;BME280;9035;42.554;23.188;2022-09-27T10:16:00;89021.63;;;18.82;81.54
17821;BME280;9035;42.554;23.188;2022-09-27T10:18:29;89036.28;;;18.80;80.52
17821;BME280;9035;42.554;23.188;2022-09-27T10:21:00;89028.75;;;18.82;80.62
17821;BME280;9035;42.554;23.188;2022-09-27T10:23:27;89030.22;;;18.86;80.06
17821;BME280;9035;42.554;23.188;2022-09-27T10:25:56;89022.66;;;18.88;81.60
17821;BME280;9035;42.554;23.188;2022-09-27T10:28:33;89015.41;;;18.99;82.25
17821;BME280;9035;42.554;23.188;2022-09-27T10:31:03;89017.56;;;19.04;80.32
17821;BME280;9035;42.554;23.188;2022-09-27T10:33:31;89010.78;;;19.10;80.10
17821;BME280;9035;42.554;23.188;2022-09-27T10:35:59;89008.16;;;19.10;80.32
17821;BME280;9035;42.554;23.188;2022-09-27T10:38:29;89015.28;;;19.10;80.57
17821;BME280;9035;42.554;23.188;2022-09-27T10:40:58;89018.28;;;19.38;79.07
17821;BME280;9035;42.554;23.188;2022-09-27T10:43:41;89017.09;;;19.69;79.04
17821;BME280;9035;42.554;23.188;2022-09-27T10:46:23;89019.75;;;19.92;77.90
17821;BME280;9035;42.554;23.188;2022-09-27T10:49:09;89016.50;;;20.30;75.34
17821;BME280;9035;42.554;23.188;2022-09-27T10:51:42;89012.47;;;20.45;79.46
17821;BME280;9035;42.554;23.188;2022-09-27T10:54:18;89005.59;;;20.70;76.99
17821;BME280;9035;42.554;23.188;2022-09-27T10:56:54;89009.50;;;21.04;74.74
17821;BME280;9035;42.554;23.188;2022-09-27T10:59:21;89007.28;;;21.19;71.63
17821;BME280;9035;42.554;23.188;2022-09-27T11:01:49;88999.66;;;21.60;75.33
17821;BME280;9035;42.554;23.188;2022-09-27T11:04:20;89001.72;;;22.16;71.86
17821;BME280;9035;42.554;23.188;2022-09-27T11:06:50;89001.16;;;22.40;68.19
17821;BME280;9035;42.554;23.188;2022-09-27T11:09:19;89015.34;;;22.46;70.51
17821;BME280;9035;42.554;23.188;2022-09-27T11:11:48;89015.50;;;22.83;66.23
17821;BME280;9035;42.554;23.188;2022-09-27T11:14:19;89008.44;;;23.21;65.52
17821;BME280;9035;42.554;23.188;2022-09-27T11:16:53;88995.09;;;23.78;64.44
17821;BME280;9035;42.554;23.188;2022-09-27T11:19:36;89002.59;;;23.67;61.93
17821;BME280;9035;42.554;23.188;2022-09-27T11:22:18;89000.88;;;23.60;64.39
17821;BME280;9035;42.554;23.188;2022-09-27T11:24:58;89002.59;;;23.67;62.34
17821;BME280;9035;42.554;23.188;2022-09-27T11:27:34;88988.09;;;24.89;59.12
17821;BME280;9035;42.554;23.188;2022-09-27T11:30:08;88977.97;;;26.39;55.22
17821;BME280;9035;42.554;23.188;2022-09-27T11:32:53;88980.66;;;28.05;48.39
17821;BME280;9035;42.554;23.188;2022-09-27T11:35:34;88977.03;;;29.43;47.20
17821;BME280;9035;42.554;23.188;2022-09-27T11:38:16;88982.97;;;31.07;43.40
17821;BME280;9035;42.554;23.188;2022-09-27T11:40:56;88970.03;;;30.86;42.54
17821;BME280;9035;42.554;23.188;2022-09-27T11:43:49;88979.44;;;29.99;42.78
17821;BME280;9035;42.554;23.188;2022-09-27T11:46:23;88963.41;;;30.33;43.21
17821;BME280;9035;42.554;23.188;2022-09-27T11:49:06;88962.66;;;29.84;44.41
17821;BME280;9035;42.554;23.188;2022-09-27T11:51:49;88962.84;;;29.14;44.69
17821;BME280;9035;42.554;23.188;2022-09-27T11:54:34;88952.69;;;28.56;45.16
17821;BME280;9035;42.554;23.188;2022-09-27T11:57:09;88955.00;;;27.84;45.74
17821;BME280;9035;42.554;23.188;2022-09-27T12:03:02;88945.97;;;28.93;43.74
17821;BME280;9035;42.554;23.188;2022-09-27T12:05:41;88958.22;;;30.58;42.94
17821;BME280;9035;42.554;23.188;2022-09-27T12:08:25;88955.97;;;31.11;39.82
17821;BME280;9035;42.554;23.188;2022-09-27T12:11:02;88958.63;;;30.91;40.12
17821;BME280;9035;42.554;23.188;2022-09-27T12:13:35;88960.41;;;30.25;42.33
17821;BME280;9035;42.554;23.188;2022-09-27T12:16:04;88946.19;;;30.68;40.34
17821;BME280;9035;42.554;23.188;2022-09-27T12:18:34;88938.09;;;31.48;39.36
17821;BME280;9035;42.554;23.188;2022-09-27T12:21:03;88947.97;;;32.12;38.79
17821;BME280;9035;42.554;23.188;2022-09-27T12:23:38;88943.72;;;31.50;39.02
17821;BME280;9035;42.554;23.188;2022-09-27T12:26:11;88940.09;;;30.33;40.87
17821;BME280;9035;42.554;23.188;2022-09-27T12:28:46;88934.72;;;30.33;40.21
17821;BME280;9035;42.554;23.188;2022-09-27T12:31:18;88936.06;;;30.09;40.96
17821;BME280;9035;42.554;23.188;2022-09-27T12:33:54;88937.56;;;29.52;42.50
17821;BME280;9035;42.554;23.188;2022-09-27T12:36:30;88931.38;;;30.04;41.17
17821;BME280;9035;42.554;23.188;2022-09-27T12:39:03;88932.06;;;30.33;40.07
17821;BME280;9035;42.554;23.188;2022-09-27T12:41:37;88914.59;;;30.52;39.89
17821;BME280;9035;42.554;23.188;2022-09-27T12:44:08;88917.09;;;29.78;40.91
17821;BME280;9035;42.554;23.188;2022-09-27T12:46:45;88913.59;;;29.87;40.98
17821;BME280;9035;42.554;23.188;2022-09-27T12:49:20;88915.19;;;30.27;40.06
17821;BME280;9035;42.554;23.188;2022-09-27T12:51:54;88917.75;;;29.59;41.63
17821;BME280;9035;42.554;23.188;2022-09-27T12:54:45;88904.03;;;29.37;42.22
17821;BME280;9035;42.554;23.188;2022-09-27T12:57:26;88912.75;;;29.09;42.01
17821;BME280;9035;42.554;23.188;2022-09-27T13:00:08;88922.59;;;29.17;41.94
17821;BME280;9035;42.554;23.188;2022-09-27T13:05:41;88910.16;;;31.34;38.47
17821;BME280;9035;42.554;23.188;2022-09-27T13:08:25;88919.72;;;31.15;38.72
17821;BME280;9035;42.554;23.188;2022-09-27T13:11:06;88904.78;;;32.52;36.77
17821;BME280;9035;42.554;23.188;2022-09-27T13:13:35;88918.13;;;32.72;36.00
17821;BME280;9035;42.554;23.188;2022-09-27T13:16:05;88915.66;;;32.32;37.08
17821;BME280;9035;42.554;23.188;2022-09-27T13:18:50;88892.81;;;32.95;35.43
17821;BME280;9035;42.554;23.188;2022-09-27T13:24:39;88894.56;;;35.22;31.96
17821;BME280;9035;42.554;23.188;2022-09-27T13:27:34;88879.56;;;36.36;31.10
17821;BME280;9035;42.554;23.188;2022-09-27T13:33:41;88876.59;;;37.90;28.49
17821;BME280;9035;42.554;23.188;2022-09-27T13:36:29;88876.47;;;38.33;28.08